createdAt,value
2023-04-04T00:00:57.710Z,8.72
2023-04-04T00:01:57.727Z,8.89
2023-04-04T00:02:57.848Z,8.95
2023-04-04T00:03:57.882Z,8.58
2023-04-04T00:04:57.763Z,8.62
2023-04-04T00:05:57.791Z,8.45
2023-04-04T00:06:57.813Z,8.67
2023-04-04T00:07:57.800Z,8.79
2023-04-04T00:08:57.808Z,8.90
2023-04-04T00:09:57.838Z,9.05
2023-04-04T00:10:57.809Z,9.13
2023-04-04T00:11:57.750Z,9.23
2023-04-04T00:12:57.754Z,9.23
2023-04-04T00:13:57.756Z,9.30
2023-04-04T00:14:57.736Z,9.35
2023-04-04T00:15:57.903Z,9.43
2023-04-04T00:16:57.742Z,9.09
2023-04-04T00:17:57.916Z,8.74
2023-04-04T00:18:57.854Z,8.50
2023-04-04T00:19:57.798Z,8.67
2023-04-04T00:20:57.801Z,8.18
2023-04-04T00:21:57.861Z,8.06
2023-04-04T00:22:57.815Z,8.31
2023-04-04T00:23:57.869Z,8.41
2023-04-04T00:24:57.891Z,8.50
2023-04-04T00:25:57.904Z,8.68
2023-04-04T00:26:57.813Z,8.82
2023-04-04T00:27:57.823Z,8.68
2023-04-04T00:28:57.838Z,8.85
2023-04-04T00:29:57.882Z,8.89
2023-04-04T00:30:57.883Z,8.68
2023-04-04T00:31:57.873Z,8.92
2023-04-04T00:32:57.872Z,8.95
2023-04-04T00:33:57.746Z,8.93
2023-04-04T00:34:57.788Z,9.05
2023-04-04T00:35:57.885Z,8.93
2023-04-04T00:36:57.768Z,8.62
2023-04-04T00:37:57.785Z,8.89
2023-04-04T00:38:57.717Z,8.39
2023-04-04T00:39:57.800Z,8.55
2023-04-04T00:40:57.805Z,8.74
2023-04-04T00:41:57.749Z,8.68
2023-04-04T00:42:57.768Z,8.68
2023-04-04T00:43:57.733Z,8.78
2023-04-04T00:44:57.782Z,8.89
2023-04-04T00:45:57.845Z,8.86
2023-04-04T00:46:57.725Z,8.71
2023-04-04T00:47:57.815Z,8.14
2023-04-04T00:48:57.757Z,8.23
2023-04-04T00:49:57.671Z,8.27
2023-04-04T00:50:57.704Z,8.44
2023-04-04T00:51:57.721Z,8.41
2023-04-04T00:52:57.769Z,8.50
2023-04-04T00:53:57.782Z,8.58
2023-04-04T00:54:57.814Z,8.41
2023-04-04T00:55:57.837Z,8.43
2023-04-04T00:56:57.836Z,8.13
2023-04-04T00:57:57.828Z,8.43
2023-04-04T00:58:57.815Z,8.57
2023-04-04T00:59:57.848Z,8.71
2023-04-04T01:00:57.992Z,8.79
2023-04-04T01:01:57.900Z,8.92
2023-04-04T01:02:58.073Z,8.99
2023-04-04T01:03:57.985Z,8.67
2023-04-04T01:04:57.968Z,8.34
2023-04-04T01:05:57.995Z,8.54
2023-04-04T01:06:58.021Z,8.50
2023-04-04T01:07:58.040Z,8.65
2023-04-04T01:08:58.098Z,8.79
2023-04-04T01:09:58.068Z,8.85
2023-04-04T01:10:58.209Z,8.64
2023-04-04T01:11:58.144Z,8.92
2023-04-04T01:12:58.273Z,8.96
2023-04-04T01:13:58.229Z,8.90
2023-04-04T01:14:58.248Z,8.96
2023-04-04T01:15:58.308Z,8.92
2023-04-04T01:16:58.350Z,8.78
2023-04-04T01:17:58.341Z,8.93
2023-04-04T01:18:58.357Z,8.98
2023-04-04T01:19:58.378Z,9.07
2023-04-04T01:20:58.487Z,9.12
2023-04-04T01:21:58.499Z,9.17
2023-04-04T01:22:58.562Z,9.00
2023-04-04T01:23:58.605Z,8.43
2023-04-04T01:24:58.609Z,7.92
2023-04-04T01:25:58.546Z,8.36
2023-04-04T01:26:58.504Z,8.44
2023-04-04T01:27:58.504Z,8.64
2023-04-04T01:28:58.574Z,8.74
2023-04-04T01:29:58.544Z,8.85
2023-04-04T01:30:58.535Z,8.76
2023-04-04T01:31:58.531Z,8.83
2023-04-04T01:32:58.514Z,8.79
2023-04-04T01:33:58.547Z,8.88
2023-04-04T01:34:58.649Z,8.79
2023-04-04T01:35:58.715Z,8.78
2023-04-04T01:36:58.774Z,8.79
2023-04-04T01:37:58.713Z,8.60
2023-04-04T01:38:58.823Z,8.68
2023-04-04T01:39:58.900Z,8.67
2023-04-04T01:40:58.931Z,8.69
2023-04-04T01:41:58.858Z,8.76
2023-04-04T01:42:58.915Z,8.60
2023-04-04T01:43:58.852Z,8.60
2023-04-04T01:44:58.888Z,8.68
2023-04-04T01:45:58.858Z,8.79
2023-04-04T01:46:58.859Z,8.83
2023-04-04T01:47:58.858Z,8.86
2023-04-04T01:48:58.781Z,8.95
2023-04-04T01:49:58.867Z,9.03
2023-04-04T01:50:58.813Z,8.79
2023-04-04T01:51:58.878Z,8.67
2023-04-04T01:52:58.812Z,8.71
2023-04-04T01:53:58.881Z,8.10
2023-04-04T01:54:58.839Z,7.85
2023-04-04T01:55:58.850Z,8.03
2023-04-04T01:56:58.897Z,7.86
2023-04-04T01:57:58.957Z,7.75
2023-04-04T01:58:59.022Z,7.60
2023-04-04T01:59:59.020Z,7.55
2023-04-04T02:00:59.071Z,7.44
2023-04-04T02:01:59.054Z,7.58
2023-04-04T02:02:59.031Z,7.67
2023-04-04T02:03:59.060Z,7.24
2023-04-04T02:04:59.177Z,7.20
2023-04-04T02:05:59.190Z,7.22
2023-04-04T02:06:59.185Z,7.07
2023-04-04T02:07:59.237Z,7.10
2023-04-04T02:08:59.195Z,7.09
2023-04-04T02:09:59.160Z,7.16
2023-04-04T02:10:59.180Z,7.12
2023-04-04T02:11:59.156Z,7.05
2023-04-04T02:12:59.129Z,6.88
2023-04-04T02:13:59.114Z,6.60
2023-04-04T02:14:59.173Z,6.88
2023-04-04T02:15:59.154Z,7.03
2023-04-04T02:16:59.113Z,6.67
2023-04-04T02:18:01.811Z,6.79
2023-04-04T02:18:59.108Z,6.44
2023-04-04T02:19:59.114Z,6.39
2023-04-04T02:20:59.147Z,6.50
2023-04-04T02:21:59.182Z,6.78
2023-04-04T02:22:59.083Z,6.89
2023-04-04T02:23:59.039Z,7.03
2023-04-04T02:24:59.085Z,6.91
2023-04-04T02:25:59.034Z,6.77
2023-04-04T02:26:59.149Z,7.05
2023-04-04T02:27:59.142Z,7.23
2023-04-04T02:28:59.027Z,7.24
2023-04-04T02:29:59.042Z,7.40
2023-04-04T02:30:59.667Z,7.54
2023-04-04T02:31:59.709Z,7.61
2023-04-04T02:32:59.125Z,7.68
2023-04-04T02:33:59.026Z,7.47
2023-04-04T02:34:59.034Z,7.50
2023-04-04T02:35:59.147Z,7.48
2023-04-04T02:36:59.022Z,7.68
2023-04-04T02:37:58.992Z,7.79
2023-04-04T02:38:59.002Z,7.48
2023-04-04T02:39:58.992Z,7.33
2023-04-04T02:40:59.012Z,7.17
2023-04-04T02:41:58.998Z,7.10
2023-04-04T02:42:58.947Z,7.00
2023-04-04T02:43:59.032Z,6.95
2023-04-04T02:44:58.921Z,7.20
2023-04-04T02:46:01.134Z,7.35
2023-04-04T02:46:58.971Z,7.47
2023-04-04T02:47:58.958Z,7.50
2023-04-04T02:48:58.930Z,7.57
2023-04-04T02:49:58.902Z,7.67
2023-04-04T02:50:58.926Z,7.81
2023-04-04T02:51:58.918Z,7.84
2023-04-04T02:52:58.913Z,7.55
2023-04-04T02:53:58.983Z,7.65
2023-04-04T02:54:58.947Z,7.53
2023-04-04T02:55:58.832Z,7.71
2023-04-04T02:56:58.847Z,7.74
2023-04-04T02:57:58.868Z,7.78
2023-04-04T02:58:58.917Z,7.86
2023-04-04T02:59:58.938Z,7.96
2023-04-04T03:00:58.896Z,7.95
2023-04-04T03:01:58.881Z,7.67
2023-04-04T03:02:59.059Z,7.64
2023-04-04T03:03:58.856Z,7.58
2023-04-04T03:04:58.811Z,7.75
2023-04-04T03:05:58.828Z,7.37
2023-04-04T03:06:58.826Z,7.26
2023-04-04T03:07:58.789Z,7.23
2023-04-04T03:08:58.885Z,6.91
2023-04-04T03:09:58.848Z,7.12
2023-04-04T03:10:58.807Z,6.94
2023-04-04T03:11:58.847Z,6.94
2023-04-04T03:12:58.955Z,6.65
2023-04-04T03:13:59.055Z,6.50
2023-04-04T03:14:59.032Z,6.77
2023-04-04T03:15:59.093Z,7.00
2023-04-04T03:16:59.163Z,6.89
2023-04-04T03:17:59.984Z,7.00
2023-04-04T03:18:59.151Z,7.02
2023-04-04T03:19:59.087Z,7.10
2023-04-04T03:20:59.104Z,7.06
2023-04-04T03:21:59.104Z,7.17
2023-04-04T03:22:59.030Z,7.31
2023-04-04T03:23:59.031Z,7.30
2023-04-04T03:24:59.016Z,7.30
2023-04-04T03:25:59.050Z,7.37
2023-04-04T03:26:59.055Z,7.38
2023-04-04T03:27:59.025Z,7.40
2023-04-04T03:28:59.134Z,7.27
2023-04-04T03:29:59.148Z,7.17
2023-04-04T03:30:59.229Z,7.14
2023-04-04T03:31:59.232Z,6.94
2023-04-04T03:32:59.916Z,7.16
2023-04-04T03:33:59.370Z,7.23
2023-04-04T03:34:59.254Z,7.40
2023-04-04T03:35:59.551Z,7.48
2023-04-04T03:36:59.553Z,7.61
2023-04-04T03:37:59.420Z,7.74
2023-04-04T03:38:59.492Z,7.84
2023-04-04T03:39:59.549Z,7.89
2023-04-04T03:40:59.484Z,7.92
2023-04-04T03:42:00.221Z,7.93
2023-04-04T03:42:59.547Z,8.00
2023-04-04T03:43:59.514Z,7.84
2023-04-04T03:44:59.561Z,7.72
2023-04-04T03:45:59.553Z,7.85
2023-04-04T03:46:59.709Z,7.96
2023-04-04T03:47:59.675Z,8.00
2023-04-04T03:48:59.631Z,7.71
2023-04-04T03:49:59.676Z,7.74
2023-04-04T03:50:59.791Z,7.30
2023-04-04T03:51:59.727Z,7.16
2023-04-04T03:52:59.794Z,7.29
2023-04-04T03:53:59.711Z,7.40
2023-04-04T03:54:59.724Z,7.57
2023-04-04T03:55:59.831Z,7.60
2023-04-04T03:56:59.730Z,7.65
2023-04-04T03:57:59.727Z,7.72
2023-04-04T03:58:59.753Z,7.62
2023-04-04T03:59:59.735Z,7.78
2023-04-04T04:00:59.663Z,7.74
2023-04-04T04:01:59.681Z,7.75
2023-04-04T04:02:59.751Z,7.84
2023-04-04T04:03:59.656Z,7.88
2023-04-04T04:04:59.628Z,7.92
2023-04-04T04:06:00.246Z,7.95
2023-04-04T04:07:00.169Z,7.69
2023-04-04T04:07:59.584Z,7.81
2023-04-04T04:08:59.699Z,7.84
2023-04-04T04:09:59.628Z,7.84
2023-04-04T04:10:59.637Z,7.85
2023-04-04T04:11:59.656Z,7.86
2023-04-04T04:12:59.580Z,7.71
2023-04-04T04:13:59.580Z,7.53
2023-04-04T04:14:59.578Z,7.47
2023-04-04T04:15:59.601Z,7.61
2023-04-04T04:16:59.660Z,7.64
2023-04-04T04:17:59.638Z,7.62
2023-04-04T04:18:59.527Z,7.54
2023-04-04T04:19:59.529Z,7.62
2023-04-04T04:20:59.551Z,7.68
2023-04-04T04:21:59.529Z,7.72
2023-04-04T04:22:59.609Z,7.81
2023-04-04T04:23:59.643Z,7.72
2023-04-04T04:24:59.712Z,7.78
2023-04-04T04:25:59.726Z,7.84
2023-04-04T04:26:59.787Z,7.81
2023-04-04T04:28:00.276Z,7.48
2023-04-04T04:28:59.771Z,7.62
2023-04-04T04:29:59.831Z,7.48
2023-04-04T04:30:59.894Z,7.43
2023-04-04T04:31:59.978Z,7.53
2023-04-04T04:33:00.034Z,7.61
2023-04-04T04:33:59.906Z,7.53
2023-04-04T04:34:59.957Z,7.64
2023-04-04T04:36:01.602Z,7.71
2023-04-04T04:36:59.890Z,7.71
2023-04-04T04:37:59.905Z,7.68
2023-04-04T04:38:59.839Z,7.78
2023-04-04T04:39:59.861Z,7.85
2023-04-04T04:40:59.849Z,7.86
2023-04-04T04:41:59.885Z,7.93
2023-04-04T04:42:59.880Z,7.95
2023-04-04T04:43:59.957Z,7.88
2023-04-04T04:44:59.808Z,7.93
2023-04-04T04:45:59.869Z,7.88
2023-04-04T04:46:59.856Z,7.82
2023-04-04T04:47:59.918Z,7.93
2023-04-04T04:48:59.874Z,7.93
2023-04-04T04:49:59.844Z,7.96
2023-04-04T04:50:59.879Z,8.00
2023-04-04T04:51:59.826Z,7.84
2023-04-04T04:52:59.808Z,7.89
2023-04-04T04:53:59.841Z,7.93
2023-04-04T04:54:59.832Z,7.92
2023-04-04T04:55:59.799Z,7.88
2023-04-04T04:56:59.789Z,7.48
2023-04-04T04:57:59.796Z,7.26
2023-04-04T04:58:59.941Z,6.98
2023-04-04T04:59:59.785Z,7.07
2023-04-04T05:02:27.764Z,6.65
2023-04-04T05:03:20.130Z,6.74
2023-04-04T05:04:20.035Z,6.65
2023-04-04T05:05:20.106Z,6.67
2023-04-04T05:06:19.989Z,6.67
2023-04-04T05:07:20.053Z,6.79
2023-04-04T05:08:20.035Z,6.61
2023-04-04T05:09:20.085Z,6.77
2023-04-04T05:10:19.956Z,6.22
2023-04-04T05:11:20.009Z,6.27
2023-04-04T05:12:19.986Z,6.34
2023-04-04T05:13:20.065Z,6.55
2023-04-04T05:14:20.032Z,6.51
2023-04-04T05:15:19.986Z,6.69
2023-04-04T05:16:19.977Z,6.94
2023-04-04T05:17:20.037Z,6.52
2023-04-04T05:18:20.066Z,6.86
2023-04-04T05:19:20.117Z,7.06
2023-04-04T05:20:20.104Z,7.22
2023-04-04T05:21:20.144Z,7.37
2023-04-04T05:22:20.112Z,7.55
2023-04-04T05:23:20.203Z,7.61
2023-04-04T05:24:20.205Z,7.72
2023-04-04T05:25:20.328Z,7.78
2023-04-04T05:26:20.376Z,7.85
2023-04-04T05:27:20.342Z,7.97
2023-04-04T05:28:20.379Z,8.02
2023-04-04T05:29:20.387Z,8.10
2023-04-04T05:30:20.361Z,8.14
2023-04-04T05:31:20.444Z,8.09
2023-04-04T05:32:20.396Z,8.18
2023-04-04T05:33:20.395Z,8.23
2023-04-04T05:34:20.377Z,7.96
2023-04-04T05:35:20.352Z,7.90
2023-04-04T05:36:20.358Z,8.03
2023-04-04T05:37:20.408Z,8.09
2023-04-04T05:38:20.316Z,8.17
2023-04-04T05:39:20.364Z,8.23
2023-04-04T05:40:20.273Z,8.31
2023-04-04T05:41:20.341Z,8.39
2023-04-04T05:42:20.281Z,8.43
2023-04-04T05:43:20.285Z,8.47
2023-04-04T05:44:20.258Z,8.57
2023-04-04T05:45:20.325Z,8.50
2023-04-04T05:46:30.769Z,8.57
2023-04-04T05:47:20.166Z,8.64
2023-04-04T05:48:20.248Z,8.68
2023-04-04T05:49:20.241Z,8.30
2023-04-04T05:50:20.258Z,7.97
2023-04-04T05:51:20.172Z,8.12
2023-04-04T05:52:20.192Z,8.27
2023-04-04T05:53:20.193Z,8.40
2023-04-04T05:54:20.129Z,8.51
2023-04-04T05:55:20.174Z,8.60
2023-04-04T05:56:20.213Z,8.72
2023-04-04T05:57:20.219Z,8.64
2023-04-04T05:58:20.129Z,8.76
2023-04-04T05:59:20.177Z,8.83
2023-04-04T06:00:20.140Z,8.90
2023-04-04T06:01:20.123Z,8.99
2023-04-04T06:02:20.183Z,8.90
2023-04-04T06:03:22.113Z,8.52
2023-04-04T06:04:20.148Z,8.17
2023-04-04T06:05:20.091Z,8.51
2023-04-04T06:06:20.190Z,8.57
2023-04-04T06:07:20.178Z,8.68
2023-04-04T06:08:20.176Z,8.82
2023-04-04T06:09:20.105Z,8.55
2023-04-04T06:10:20.237Z,8.50
2023-04-04T06:11:20.192Z,8.55
2023-04-04T06:12:20.220Z,8.74
2023-04-04T06:13:20.198Z,8.54
2023-04-04T06:14:20.238Z,8.52
2023-04-04T06:15:20.220Z,8.80
2023-04-04T06:16:20.353Z,8.72
2023-04-04T06:17:20.371Z,8.62
2023-04-04T06:18:20.364Z,8.62
2023-04-04T06:19:21.923Z,8.85
2023-04-04T06:20:20.374Z,8.80
2023-04-04T06:21:20.363Z,8.92
2023-04-04T06:22:20.446Z,9.00
2023-04-04T06:23:20.400Z,8.98
2023-04-04T06:24:20.467Z,9.24
2023-04-04T06:25:20.541Z,9.30
2023-04-04T06:26:20.535Z,9.47
2023-04-04T06:27:20.530Z,9.66
2023-04-04T06:28:21.529Z,9.79
2023-04-04T06:29:20.647Z,9.69
2023-04-04T06:30:20.657Z,9.26
2023-04-04T06:31:20.715Z,9.45
2023-04-04T06:32:20.711Z,9.50
2023-04-04T06:33:20.685Z,9.66
2023-04-04T06:34:20.748Z,9.48
2023-04-04T06:35:20.781Z,9.33
2023-04-04T06:36:20.806Z,9.23
2023-04-04T06:37:20.913Z,8.89
2023-04-04T06:38:20.843Z,8.71
2023-04-04T06:39:20.941Z,8.68
2023-04-04T06:40:20.918Z,8.68
2023-04-04T06:41:20.974Z,8.51
2023-04-04T06:42:21.030Z,8.69
2023-04-04T06:43:21.064Z,8.71
2023-04-04T06:44:21.054Z,8.90
2023-04-04T06:45:21.058Z,9.17
2023-04-04T06:46:21.104Z,9.30
2023-04-04T06:47:21.182Z,9.51
2023-04-04T06:48:21.176Z,9.35
2023-04-04T06:49:21.218Z,9.68
2023-04-04T06:50:21.241Z,9.77
2023-04-04T06:51:21.292Z,9.48
2023-04-04T06:52:21.387Z,9.14
2023-04-04T06:53:21.310Z,9.61
2023-04-04T06:54:21.321Z,9.71
2023-04-04T06:55:21.342Z,9.93
2023-04-04T06:56:21.428Z,9.96
2023-04-04T06:57:21.538Z,9.95
2023-04-04T06:58:21.540Z,9.38
2023-04-04T06:59:21.608Z,9.55
2023-04-04T07:00:21.566Z,9.82
2023-04-04T07:01:21.633Z,9.90
2023-04-04T07:02:21.618Z,9.31
2023-04-04T07:03:21.620Z,9.05
2023-04-04T07:04:21.624Z,9.02
2023-04-04T07:05:21.601Z,9.34
2023-04-04T07:06:22.988Z,9.47
2023-04-04T07:07:21.713Z,9.79
2023-04-04T07:08:21.717Z,9.59
2023-04-04T07:09:28.708Z,9.84
2023-04-04T07:10:22.753Z,9.78
2023-04-04T07:11:21.737Z,9.84
2023-04-04T07:12:21.808Z,10.00
2023-04-04T07:13:21.747Z,10.21
2023-04-04T07:15:49.981Z,10.26
2023-04-04T07:16:41.922Z,10.45
2023-04-04T07:17:41.851Z,10.64
2023-04-04T07:18:41.794Z,10.79
2023-04-04T07:19:41.805Z,10.99
2023-04-04T07:20:42.006Z,11.03
2023-04-04T07:21:41.811Z,10.45
2023-04-04T07:22:41.749Z,10.80
2023-04-04T07:23:41.920Z,10.86
2023-04-04T07:24:41.801Z,10.88
2023-04-04T07:25:43.272Z,10.47
2023-04-04T07:26:41.764Z,10.47
2023-04-04T07:27:41.903Z,10.40
2023-04-04T07:28:41.818Z,10.30
2023-04-04T07:29:41.942Z,10.45
2023-04-04T07:30:42.080Z,10.41
2023-04-04T07:31:41.747Z,10.64
2023-04-04T07:32:41.830Z,10.78
2023-04-04T07:33:41.720Z,10.60
2023-04-04T07:34:41.789Z,10.44
2023-04-04T07:35:41.842Z,10.50
2023-04-04T07:36:41.739Z,10.69
2023-04-04T07:37:41.758Z,10.54
2023-04-04T07:38:41.714Z,10.44
2023-04-04T07:39:41.758Z,10.74
2023-04-04T07:40:41.971Z,10.91
2023-04-04T07:41:41.705Z,10.99
2023-04-04T07:42:42.587Z,10.65
2023-04-04T07:43:41.702Z,10.71
2023-04-04T07:44:41.678Z,10.61
2023-04-04T07:45:41.676Z,10.85
2023-04-04T07:46:41.804Z,11.14
2023-04-04T07:47:41.727Z,11.23
2023-04-04T07:48:41.708Z,11.41
2023-04-04T07:49:41.712Z,11.34
2023-04-04T07:50:41.824Z,11.45
2023-04-04T07:51:42.459Z,11.34
2023-04-04T07:52:41.647Z,10.94
2023-04-04T07:53:41.616Z,10.92
2023-04-04T07:54:41.586Z,11.20
2023-04-04T07:55:41.644Z,10.55
2023-04-04T07:56:41.613Z,10.79
2023-04-04T07:57:41.571Z,10.91
2023-04-04T07:58:42.129Z,10.80
2023-04-04T07:59:41.568Z,11.17
2023-04-04T08:00:41.766Z,11.27
2023-04-04T08:01:49.383Z,11.31
2023-04-04T08:02:41.611Z,11.12
2023-04-04T08:03:41.812Z,10.75
2023-04-04T08:04:41.884Z,10.88
2023-04-04T08:05:41.521Z,11.24
2023-04-04T08:06:41.497Z,11.44
2023-04-04T08:07:41.525Z,11.62
2023-04-04T08:08:41.534Z,11.75
2023-04-04T08:09:41.483Z,11.82
2023-04-04T08:10:41.806Z,11.72
2023-04-04T08:11:41.455Z,11.41
2023-04-04T08:12:41.567Z,11.81
2023-04-04T08:13:41.455Z,11.50
2023-04-04T08:14:41.527Z,11.48
2023-04-04T08:15:41.535Z,11.37
2023-04-04T08:16:41.549Z,11.68
2023-04-04T08:17:41.520Z,11.48
2023-04-04T08:18:41.498Z,11.13
2023-04-04T08:19:41.452Z,11.23
2023-04-04T08:20:41.780Z,11.48
2023-04-04T08:21:41.463Z,11.48
2023-04-04T08:22:41.740Z,11.38
2023-04-04T08:23:41.631Z,11.60
2023-04-04T08:24:41.557Z,11.72
2023-04-04T08:25:41.602Z,11.27
2023-04-04T08:26:43.468Z,11.71
2023-04-04T08:27:41.774Z,11.22
2023-04-04T08:28:41.639Z,11.58
2023-04-04T08:29:41.625Z,11.84
2023-04-04T08:30:41.718Z,12.03
2023-04-04T08:31:41.739Z,12.29
2023-04-04T08:32:41.697Z,11.89
2023-04-04T08:33:47.087Z,12.13
2023-04-04T08:34:42.723Z,11.61
2023-04-04T08:35:41.620Z,12.12
2023-04-04T08:36:41.586Z,12.19
2023-04-04T08:37:41.620Z,11.97
2023-04-04T08:38:41.615Z,11.86
2023-04-04T08:39:41.605Z,11.96
2023-04-04T08:40:41.861Z,12.00
2023-04-04T08:41:41.546Z,11.85
2023-04-04T08:42:41.717Z,11.99
2023-04-04T08:43:41.656Z,12.02
2023-04-04T08:44:41.742Z,12.00
2023-04-04T08:45:41.687Z,11.77
2023-04-04T08:46:41.733Z,11.75
2023-04-04T08:47:41.795Z,11.48
2023-04-04T08:48:41.775Z,11.88
2023-04-04T08:49:41.906Z,12.12
2023-04-04T08:50:41.909Z,12.22
2023-04-04T08:51:43.026Z,12.16
2023-04-04T08:52:41.656Z,11.64
2023-04-04T08:53:41.661Z,11.71
2023-04-04T08:54:41.842Z,11.57
2023-04-04T08:55:41.724Z,11.37
2023-04-04T08:56:41.685Z,11.79
2023-04-04T08:57:41.656Z,12.06
2023-04-04T08:58:41.772Z,12.05
2023-04-04T08:59:42.719Z,12.33
2023-04-04T09:00:42.823Z,12.34
2023-04-04T09:01:41.649Z,12.07
2023-04-04T09:02:41.774Z,11.92
2023-04-04T09:03:41.617Z,12.22
2023-04-04T09:04:43.019Z,12.41
2023-04-04T09:05:41.804Z,12.44
2023-04-04T09:06:41.752Z,12.20
2023-04-04T09:07:41.606Z,12.10
2023-04-04T09:08:41.557Z,12.22
2023-04-04T09:09:41.562Z,12.50
2023-04-04T09:10:41.755Z,12.60
2023-04-04T09:11:41.806Z,12.86
2023-04-04T09:12:41.667Z,13.03
2023-04-04T09:13:41.705Z,12.65
2023-04-04T09:14:41.597Z,12.58
2023-04-04T09:15:41.601Z,12.71
2023-04-04T09:16:41.644Z,12.58
2023-04-04T09:17:41.620Z,12.79
2023-04-04T09:18:41.587Z,12.91
2023-04-04T09:19:41.593Z,12.67
2023-04-04T09:20:41.783Z,12.45
2023-04-04T09:21:41.560Z,12.51
2023-04-04T09:22:41.482Z,12.75
2023-04-04T09:23:41.604Z,12.95
2023-04-04T09:24:41.511Z,13.03
2023-04-04T09:25:43.634Z,13.02
2023-04-04T09:26:42.587Z,12.81
2023-04-04T09:27:41.508Z,12.62
2023-04-04T09:28:41.520Z,12.81
2023-04-04T09:29:41.487Z,13.06
2023-04-04T09:30:41.744Z,12.89
2023-04-04T09:31:41.535Z,12.50
2023-04-04T09:32:41.543Z,12.26
2023-04-04T09:33:41.480Z,12.43
2023-04-04T09:34:41.505Z,12.68
2023-04-04T09:35:41.473Z,12.67
2023-04-04T09:36:41.484Z,11.54
2023-04-04T09:37:41.499Z,12.06
2023-04-04T09:38:41.558Z,12.13
2023-04-04T09:39:41.636Z,12.48
2023-04-04T09:40:41.556Z,12.64
2023-04-04T09:41:41.710Z,12.72
2023-04-04T09:42:41.717Z,13.02
2023-04-04T09:43:41.909Z,13.23
2023-04-04T09:44:41.897Z,13.22
2023-04-04T09:45:42.691Z,13.33
2023-04-04T09:46:42.002Z,13.53
2023-04-04T09:47:41.888Z,13.43
2023-04-04T09:48:42.016Z,13.53
2023-04-04T09:49:42.019Z,13.49
2023-04-04T09:50:42.449Z,13.71
2023-04-04T09:51:42.455Z,13.79
2023-04-04T09:52:42.052Z,13.67
2023-04-04T09:53:42.536Z,13.57
2023-04-04T09:54:48.047Z,13.49
2023-04-04T09:55:43.220Z,13.77
2023-04-04T09:56:42.092Z,13.39
2023-04-04T09:57:42.152Z,13.30
2023-04-04T09:58:52.404Z,13.57
2023-04-04T09:59:43.206Z,13.62
2023-04-04T10:00:42.218Z,13.34
2023-04-04T10:01:42.140Z,12.85
2023-04-04T10:02:42.167Z,12.79
2023-04-04T10:03:42.201Z,13.00
2023-04-04T10:04:41.998Z,13.24
2023-04-04T10:05:42.157Z,13.30
2023-04-04T10:06:42.011Z,13.36
2023-04-04T10:07:42.111Z,13.24
2023-04-04T10:08:42.194Z,13.50
2023-04-04T10:09:42.112Z,13.17
2023-04-04T10:10:42.080Z,13.13
2023-04-04T10:11:42.148Z,12.88
2023-04-04T10:12:42.152Z,13.13
2023-04-04T10:13:42.354Z,13.27
2023-04-04T10:14:42.173Z,13.00
2023-04-04T10:15:42.283Z,13.32
2023-04-04T10:16:42.255Z,12.26
2023-04-04T10:17:42.255Z,12.64
2023-04-04T10:18:42.268Z,12.67
2023-04-04T10:19:42.385Z,12.84
2023-04-04T10:20:42.322Z,12.81
2023-04-04T10:21:43.009Z,13.13
2023-04-04T10:22:43.633Z,13.33
2023-04-04T10:23:42.578Z,13.53
2023-04-04T10:24:42.531Z,13.58
2023-04-04T10:25:42.541Z,13.78
2023-04-04T10:26:42.610Z,13.95
2023-04-04T10:27:42.650Z,12.96
2023-04-04T10:28:42.647Z,12.15
2023-04-04T10:29:42.471Z,11.69
2023-04-04T10:30:49.832Z,11.53
2023-04-04T10:31:43.487Z,11.93
2023-04-04T10:32:42.596Z,12.32
2023-04-04T10:33:42.605Z,12.69
2023-04-04T10:34:42.514Z,12.62
2023-04-04T10:35:42.465Z,12.71
2023-04-04T10:36:42.508Z,12.82
2023-04-04T10:37:42.377Z,12.37
2023-04-04T10:38:42.485Z,12.77
2023-04-04T10:39:42.522Z,12.79
2023-04-04T10:40:42.765Z,13.06
2023-04-04T10:41:42.574Z,13.06
2023-04-04T10:42:43.273Z,13.09
2023-04-04T10:43:42.580Z,13.13
2023-04-04T10:44:42.607Z,12.86
2023-04-04T10:45:42.906Z,13.02
2023-04-04T10:46:42.721Z,13.19
2023-04-04T10:47:43.563Z,13.40
2023-04-04T10:48:42.798Z,13.34
2023-04-04T10:49:42.795Z,13.67
2023-04-04T10:50:42.751Z,13.02
2023-04-04T10:51:55.112Z,13.43
2023-04-04T10:52:42.897Z,12.99
2023-04-04T10:53:42.837Z,12.96
2023-04-04T10:54:42.837Z,13.29
2023-04-04T10:55:42.896Z,13.57
2023-04-04T10:56:42.756Z,13.57
2023-04-04T10:57:42.745Z,13.86
2023-04-04T10:58:42.787Z,13.98
2023-04-04T10:59:42.763Z,13.85
2023-04-04T11:00:42.868Z,13.68
2023-04-04T11:01:42.834Z,13.19
2023-04-04T11:02:43.620Z,13.43
2023-04-04T11:03:42.927Z,13.29
2023-04-04T11:04:42.979Z,13.41
2023-04-04T11:05:43.135Z,13.22
2023-04-04T11:06:42.731Z,13.44
2023-04-04T11:07:42.764Z,12.88
2023-04-04T11:08:42.727Z,13.17
2023-04-04T11:09:42.793Z,13.51
2023-04-04T11:10:42.652Z,13.51
2023-04-04T11:11:42.604Z,13.69
2023-04-04T11:12:42.743Z,13.85
2023-04-04T11:13:42.664Z,14.03
2023-04-04T11:14:42.694Z,13.84
2023-04-04T11:15:42.689Z,13.71
2023-04-04T11:16:42.624Z,13.39
2023-04-04T11:17:42.711Z,13.68
2023-04-04T11:18:42.592Z,13.86
2023-04-04T11:19:42.650Z,13.60
2023-04-04T11:20:42.668Z,13.89
2023-04-04T11:21:42.611Z,13.89
2023-04-04T11:22:42.720Z,13.93
2023-04-04T11:23:42.630Z,13.89
2023-04-04T11:24:42.576Z,13.89
2023-04-04T11:25:42.662Z,13.96
2023-04-04T11:26:42.798Z,14.06
2023-04-04T11:27:42.761Z,14.12
2023-04-04T11:28:42.772Z,14.32
2023-04-04T11:29:43.905Z,14.27
2023-04-04T11:30:42.809Z,14.56
2023-04-04T11:31:42.804Z,14.60
2023-04-04T11:32:47.916Z,14.71
2023-04-04T11:33:42.915Z,14.84
2023-04-04T11:34:43.618Z,14.94
2023-04-04T11:35:43.064Z,14.30
2023-04-04T11:36:42.887Z,13.74
2023-04-04T11:37:42.823Z,13.85
2023-04-04T11:38:42.839Z,13.92
2023-04-04T11:39:42.723Z,13.85
2023-04-04T11:40:42.902Z,13.46
2023-04-04T11:41:42.831Z,13.85
2023-04-04T11:42:42.843Z,13.61
2023-04-04T11:43:43.609Z,13.24
2023-04-04T11:44:42.883Z,13.39
2023-04-04T11:45:43.671Z,13.40
2023-04-04T11:46:42.735Z,13.24
2023-04-04T11:47:42.806Z,13.39
2023-04-04T11:48:42.793Z,13.65
2023-04-04T11:49:42.704Z,14.01
2023-04-04T11:50:42.713Z,14.02
2023-04-04T11:51:42.826Z,13.81
2023-04-04T11:52:42.659Z,14.08
2023-04-04T11:53:42.728Z,14.15
2023-04-04T11:54:42.663Z,13.93
2023-04-04T11:55:42.678Z,14.20
2023-04-04T11:56:42.815Z,14.40
2023-04-04T11:57:43.776Z,14.17
2023-04-04T11:58:42.727Z,13.96
2023-04-04T11:59:42.697Z,14.33
2023-04-04T12:00:42.617Z,14.48
2023-04-04T12:01:42.580Z,14.57
2023-04-04T12:02:42.740Z,14.51
2023-04-04T12:03:42.605Z,14.52
2023-04-04T12:04:43.758Z,14.40
2023-04-04T12:05:42.762Z,14.40
2023-04-04T12:06:42.499Z,14.13
2023-04-04T12:07:42.623Z,14.24
2023-04-04T12:08:42.712Z,14.40
2023-04-04T12:09:42.569Z,14.51
2023-04-04T12:10:42.700Z,14.12
2023-04-04T12:11:42.555Z,14.44
2023-04-04T12:12:42.488Z,14.22
2023-04-04T12:13:42.594Z,14.03
2023-04-04T12:14:42.677Z,14.36
2023-04-04T12:15:43.006Z,14.11
2023-04-04T12:16:43.145Z,13.98
2023-04-04T12:17:43.014Z,14.15
2023-04-04T12:18:42.786Z,14.08
2023-04-04T12:19:42.899Z,13.67
2023-04-04T12:20:43.821Z,13.79
2023-04-04T12:21:42.741Z,13.67
2023-04-04T12:22:43.173Z,13.90
2023-04-04T12:23:42.920Z,13.69
2023-04-04T12:24:42.827Z,13.58
2023-04-04T12:25:42.896Z,13.92
2023-04-04T12:26:42.952Z,14.02
2023-04-04T12:27:43.615Z,14.20
2023-04-04T12:28:42.991Z,13.32
2023-04-04T12:29:43.291Z,13.55
2023-04-04T12:30:42.990Z,13.90
2023-04-04T12:31:43.023Z,14.01
2023-04-04T12:32:43.077Z,14.16
2023-04-04T12:33:42.957Z,14.24
2023-04-04T12:34:45.531Z,14.29
2023-04-04T12:35:43.973Z,14.36
2023-04-04T12:36:42.942Z,14.30
2023-04-04T12:37:42.857Z,13.72
2023-04-04T12:38:42.835Z,13.90
2023-04-04T12:39:42.868Z,13.88
2023-04-04T12:40:42.892Z,14.20
2023-04-04T12:41:42.967Z,14.02
2023-04-04T12:42:42.915Z,14.02
2023-04-04T12:43:42.943Z,14.12
2023-04-04T12:44:42.911Z,14.27
2023-04-04T12:45:42.926Z,14.13
2023-04-04T12:46:42.827Z,14.02
2023-04-04T12:47:42.908Z,14.02
2023-04-04T12:48:42.824Z,14.23
2023-04-04T12:49:42.861Z,14.23
2023-04-04T12:50:42.853Z,14.52
2023-04-04T12:51:42.785Z,14.30
2023-04-04T12:52:42.860Z,14.36
2023-04-04T12:53:42.827Z,14.45
2023-04-04T12:54:42.874Z,14.12
2023-04-04T12:55:42.779Z,14.29
2023-04-04T12:56:44.008Z,14.32
2023-04-04T12:57:42.798Z,14.54
2023-04-04T12:58:42.774Z,14.81
2023-04-04T12:59:43.292Z,14.96
2023-04-04T13:00:43.031Z,15.15
2023-04-04T13:01:43.007Z,14.99
2023-04-04T13:02:43.144Z,14.81
2023-04-04T13:03:43.214Z,14.56
2023-04-04T13:04:43.146Z,14.72
2023-04-04T13:05:43.154Z,14.72
2023-04-04T13:06:43.257Z,14.78
2023-04-04T13:07:43.459Z,14.60
2023-04-04T13:08:43.298Z,14.29
2023-04-04T13:09:43.244Z,14.51